createdAt,value
2023-03-18T00:02:03.079Z,4.20
2023-03-18T00:04:31.432Z,3.58
2023-03-18T00:06:58.813Z,3.53
2023-03-18T00:09:26.647Z,3.50
2023-03-18T00:11:56.537Z,4.03
2023-03-18T00:14:23.764Z,5.50
2023-03-18T00:16:50.822Z,3.88
2023-03-18T00:19:18.509Z,4.15
2023-03-18T00:21:45.785Z,4.75
2023-03-18T00:24:13.145Z,5.03
2023-03-18T00:26:40.135Z,4.63
2023-03-18T00:29:07.705Z,4.22
2023-03-18T00:31:34.864Z,4.07
2023-03-18T00:34:02.063Z,3.97
2023-03-18T00:36:30.385Z,4.05
2023-03-18T00:38:57.935Z,4.03
2023-03-18T00:41:29.660Z,4.68
2023-03-18T00:43:56.808Z,3.90
2023-03-18T00:46:26.341Z,4.22
2023-03-18T00:48:55.896Z,3.58
2023-03-18T00:51:25.054Z,3.88
2023-03-18T00:53:55.237Z,3.30
2023-03-18T00:56:26.651Z,3.58
2023-03-18T00:58:54.237Z,3.30
2023-03-18T01:01:22.647Z,3.63
2023-03-18T01:03:50.841Z,4.43
2023-03-18T01:06:22.542Z,6.78
2023-03-18T01:08:50.458Z,5.70
2023-03-18T01:11:18.120Z,4.72
2023-03-18T01:13:45.993Z,4.53
2023-03-18T01:16:13.370Z,3.85
2023-03-18T01:18:41.461Z,3.75
2023-03-18T01:21:10.295Z,3.10
2023-03-18T01:23:43.144Z,2.80
2023-03-18T01:26:10.786Z,3.03
2023-03-18T01:28:42.294Z,2.67
2023-03-18T01:31:10.088Z,2.08
2023-03-18T01:33:37.485Z,2.58
2023-03-18T01:36:05.255Z,3.78
2023-03-18T01:38:33.842Z,2.25
2023-03-18T01:41:10.847Z,2.05
2023-03-18T01:43:40.671Z,2.78
2023-03-18T01:46:32.482Z,2.25
2023-03-18T01:49:04.187Z,2.80
2023-03-18T01:51:31.307Z,2.70
2023-03-18T01:54:03.194Z,2.80
2023-03-18T01:56:30.506Z,2.65
2023-03-18T01:58:59.648Z,2.58
2023-03-18T02:01:34.995Z,2.25
2023-03-18T02:04:07.413Z,2.13
2023-03-18T02:06:34.592Z,3.05
2023-03-18T02:09:03.410Z,2.40
2023-03-18T02:11:38.431Z,2.65
2023-03-18T02:14:09.592Z,2.45
2023-03-18T02:17:02.046Z,2.65
2023-03-18T02:19:49.324Z,2.30
2023-03-18T02:22:31.934Z,2.30
2023-03-18T02:25:16.229Z,4.40
2023-03-18T02:27:48.413Z,5.28
2023-03-18T02:30:23.190Z,2.72
2023-03-18T02:32:53.699Z,2.22
2023-03-18T02:35:21.203Z,2.53
2023-03-18T02:37:49.800Z,3.33
2023-03-18T02:40:36.036Z,2.05
2023-03-18T02:43:24.504Z,2.50
2023-03-18T02:46:04.747Z,2.78
2023-03-18T02:48:36.550Z,2.35
2023-03-18T02:51:05.918Z,2.83
2023-03-18T02:53:33.904Z,2.30
2023-03-18T02:56:01.702Z,2.28
2023-03-18T02:58:29.297Z,2.53
2023-03-18T03:00:59.068Z,2.40
2023-03-18T03:03:29.114Z,2.13
2023-03-18T03:05:56.447Z,2.00
2023-03-18T03:08:24.713Z,2.95
2023-03-18T03:10:52.343Z,2.42
2023-03-18T03:13:22.117Z,5.55
2023-03-18T03:15:51.163Z,2.50
2023-03-18T03:18:18.335Z,2.35
2023-03-18T03:20:45.606Z,2.78
2023-03-18T03:23:15.616Z,2.28
2023-03-18T03:25:44.716Z,2.80
2023-03-18T03:28:13.764Z,3.03
2023-03-18T03:30:40.877Z,2.85
2023-03-18T03:33:08.314Z,2.95
2023-03-18T03:35:35.747Z,2.92
2023-03-18T03:38:03.118Z,3.20
2023-03-18T03:40:30.693Z,2.53
2023-03-18T03:42:57.819Z,2.75
2023-03-18T03:45:24.958Z,2.63
2023-03-18T03:47:54.250Z,2.50
2023-03-18T03:50:21.758Z,2.60
2023-03-18T03:52:49.420Z,2.90
2023-03-18T03:55:20.053Z,3.17
2023-03-18T03:57:47.720Z,3.08
2023-03-18T04:00:18.644Z,2.75
2023-03-18T04:02:49.908Z,2.80
2023-03-18T04:05:22.482Z,2.80
2023-03-18T04:07:51.413Z,3.15
2023-03-18T04:10:22.475Z,2.70
2023-03-18T04:12:50.849Z,2.70
2023-03-18T04:15:21.220Z,2.45
2023-03-18T04:17:50.481Z,3.10
2023-03-18T04:20:19.425Z,2.92
2023-03-18T04:22:47.819Z,3.30
2023-03-18T04:25:16.615Z,2.47
2023-03-18T04:27:43.859Z,2.45
2023-03-18T04:30:13.963Z,2.53
2023-03-18T04:32:56.927Z,2.97
2023-03-18T04:35:24.066Z,2.63
2023-03-18T04:37:51.666Z,2.15
2023-03-18T04:40:19.977Z,2.13
2023-03-18T04:42:50.405Z,1.98
2023-03-18T04:45:22.997Z,1.98
2023-03-18T04:47:50.569Z,2.13
2023-03-18T04:50:19.051Z,2.90
2023-03-18T04:52:46.415Z,3.63
2023-03-18T04:55:17.959Z,3.58
2023-03-18T04:57:45.674Z,3.45
2023-03-18T05:00:17.315Z,3.50
2023-03-18T05:02:46.694Z,2.95
2023-03-18T05:05:14.471Z,3.40
2023-03-18T05:07:46.585Z,4.68
2023-03-18T05:10:19.202Z,3.22
2023-03-18T05:12:48.509Z,4.20
2023-03-18T05:15:18.370Z,3.20
2023-03-18T05:17:50.717Z,3.70
2023-03-18T05:20:18.525Z,2.85
2023-03-18T05:22:46.860Z,2.97
2023-03-18T05:25:21.295Z,4.68
2023-03-18T05:27:49.466Z,3.40
2023-03-18T05:30:25.949Z,5.97
2023-03-18T05:32:54.893Z,4.32
2023-03-18T05:35:34.715Z,5.45
2023-03-18T05:38:01.965Z,3.42
2023-03-18T05:40:29.040Z,2.97
2023-03-18T05:43:11.719Z,2.92
2023-03-18T05:45:46.175Z,4.00
2023-03-18T05:48:16.187Z,2.88
2023-03-18T05:50:51.217Z,2.97
2023-03-18T05:53:22.049Z,4.40
2023-03-18T05:55:54.027Z,3.42
2023-03-18T05:58:21.557Z,4.10
2023-03-18T06:00:54.739Z,3.97
2023-03-18T06:03:22.260Z,4.53
2023-03-18T06:05:49.409Z,3.88
2023-03-18T06:08:17.635Z,3.35
2023-03-18T06:10:44.849Z,3.10
2023-03-18T06:13:12.137Z,3.40
2023-03-18T06:15:39.206Z,2.97
2023-03-18T06:18:06.620Z,3.63
2023-03-18T06:20:33.690Z,3.67
2023-03-18T06:23:00.898Z,4.50
2023-03-18T06:25:28.957Z,4.13
2023-03-18T06:27:56.152Z,3.63
2023-03-18T06:30:27.306Z,3.70
2023-03-18T06:32:54.476Z,3.58
2023-03-18T06:35:27.468Z,4.25
2023-03-18T06:37:54.953Z,3.80
2023-03-18T06:40:23.383Z,3.90
2023-03-18T06:42:51.429Z,3.92
2023-03-18T06:45:40.176Z,3.78
2023-03-18T06:48:12.096Z,3.78
2023-03-18T06:50:42.931Z,4.72
2023-03-18T06:53:30.212Z,3.80
2023-03-18T06:55:58.117Z,3.95
2023-03-18T06:58:30.546Z,3.88
2023-03-18T07:01:03.238Z,4.15
2023-03-18T07:03:36.930Z,3.90
2023-03-18T07:06:04.620Z,3.55
2023-03-18T07:08:33.032Z,3.72
2023-03-18T07:11:01.578Z,4.75
2023-03-18T07:13:29.286Z,4.80
2023-03-18T07:15:57.022Z,4.75
2023-03-18T07:18:24.955Z,4.93
2023-03-18T07:20:52.587Z,4.72
2023-03-18T07:23:22.207Z,4.00
2023-03-18T07:25:49.886Z,5.32
2023-03-18T07:28:19.970Z,5.43
2023-03-18T07:30:47.403Z,4.97
2023-03-18T07:33:14.400Z,6.28
2023-03-18T07:35:41.717Z,4.60
2023-03-18T07:38:10.004Z,6.30
2023-03-18T07:40:37.714Z,7.03
2023-03-18T07:43:06.246Z,9.65
2023-03-18T07:45:34.588Z,19.42
2023-03-18T07:48:01.696Z,11.30
2023-03-18T07:50:28.776Z,14.38
2023-03-18T07:52:55.832Z,12.77
2023-03-18T07:55:22.897Z,14.18
2023-03-18T07:57:50.159Z,12.00
2023-03-18T08:00:17.879Z,7.40
2023-03-18T08:02:44.900Z,5.72
2023-03-18T08:05:13.420Z,4.30
2023-03-18T08:07:40.447Z,3.85
2023-03-18T08:10:08.983Z,2.83
2023-03-18T08:12:51.486Z,3.42
2023-03-18T08:15:20.839Z,3.42
2023-03-18T08:17:48.022Z,3.38
2023-03-18T08:20:15.507Z,3.05
2023-03-18T08:22:42.537Z,4.43
2023-03-18T08:25:11.621Z,4.30
2023-03-18T08:27:38.878Z,3.35
2023-03-18T08:30:06.888Z,2.72
2023-03-18T08:32:34.583Z,2.20
2023-03-18T08:35:02.553Z,2.50
2023-03-18T08:37:29.668Z,2.58
2023-03-18T08:39:58.587Z,2.83
2023-03-18T08:42:25.668Z,2.65
2023-03-18T08:44:52.697Z,2.83
2023-03-18T08:47:20.006Z,2.50
2023-03-18T08:49:47.069Z,2.50
2023-03-18T08:52:14.691Z,2.35
2023-03-18T08:54:41.743Z,2.58
2023-03-18T08:57:08.948Z,2.20
2023-03-18T08:59:36.608Z,2.22
2023-03-18T09:02:03.725Z,1.90
2023-03-18T09:04:30.831Z,1.60
2023-03-18T09:06:57.963Z,1.65
2023-03-18T09:09:40.767Z,1.65
2023-03-18T09:12:11.827Z,1.50
2023-03-18T09:14:40.361Z,2.05
2023-03-18T09:17:07.799Z,3.15
2023-03-18T09:19:35.230Z,1.80
2023-03-18T09:22:02.261Z,2.20
2023-03-18T09:24:29.355Z,1.40
2023-03-18T09:26:56.392Z,1.40
2023-03-18T09:29:23.858Z,2.53
2023-03-18T09:31:50.872Z,1.98
2023-03-18T09:34:17.862Z,1.40
2023-03-18T09:36:50.961Z,1.58
2023-03-18T09:39:20.092Z,1.40
2023-03-18T09:42:13.339Z,1.33
2023-03-18T09:44:41.371Z,1.27
2023-03-18T09:47:18.661Z,1.63
2023-03-18T09:50:03.989Z,1.30
2023-03-18T09:52:45.036Z,1.25
2023-03-18T09:55:27.332Z,1.27
2023-03-18T09:58:01.130Z,1.50
2023-03-18T10:00:36.361Z,1.10
2023-03-18T10:03:14.339Z,1.58
2023-03-18T10:05:52.074Z,3.50
2023-03-18T10:08:40.882Z,1.85
2023-03-18T10:11:19.825Z,1.35
2023-03-18T10:13:56.334Z,1.35
2023-03-18T10:16:29.054Z,1.98
2023-03-18T10:18:57.033Z,1.35
2023-03-18T10:21:42.624Z,1.38
2023-03-18T10:24:43.498Z,1.27
2023-03-18T10:27:19.238Z,1.85
2023-03-18T10:30:10.052Z,1.38
2023-03-18T10:33:06.914Z,0.75
2023-03-18T10:35:45.422Z,1.10
2023-03-18T10:38:44.747Z,1.30
2023-03-18T10:41:33.857Z,1.35
2023-03-18T10:44:16.522Z,1.10
2023-03-18T10:46:46.643Z,1.10
2023-03-18T10:49:20.446Z,0.98
2023-03-18T10:51:52.341Z,1.17
2023-03-18T10:54:38.282Z,0.80
2023-03-18T10:57:05.328Z,0.90
2023-03-18T10:59:34.458Z,1.10
2023-03-18T11:02:13.728Z,0.80
2023-03-18T11:04:54.419Z,0.75
2023-03-18T11:07:26.718Z,0.60
2023-03-18T11:09:54.799Z,1.13
2023-03-18T11:12:28.658Z,0.77
2023-03-18T11:14:56.376Z,1.17
2023-03-18T11:17:33.215Z,0.73
2023-03-18T11:20:21.955Z,0.98
2023-03-18T11:22:52.306Z,0.70
2023-03-18T11:25:26.947Z,0.77
2023-03-18T11:28:02.320Z,0.55
2023-03-18T11:30:35.226Z,0.40
2023-03-18T11:33:17.311Z,0.73
2023-03-18T11:35:52.048Z,0.70
2023-03-18T11:38:32.914Z,0.88
2023-03-18T11:41:08.665Z,0.80
2023-03-18T11:43:37.792Z,0.73
2023-03-18T11:46:08.293Z,0.82
2023-03-18T11:48:39.086Z,0.52
2023-03-18T11:51:32.386Z,0.70
2023-03-18T11:54:30.302Z,0.60
2023-03-18T11:57:02.798Z,0.73
2023-03-18T12:00:10.589Z,0.47
2023-03-18T12:02:50.449Z,1.20
2023-03-18T12:05:36.011Z,0.60
2023-03-18T12:08:43.779Z,0.90
2023-03-18T12:11:16.167Z,0.60
2023-03-18T12:14:01.939Z,0.50
2023-03-18T12:17:01.136Z,0.60
2023-03-18T12:19:54.012Z,0.57
2023-03-18T12:22:48.770Z,0.90
2023-03-18T12:25:47.004Z,0.73
2023-03-18T12:28:49.374Z,0.38
2023-03-18T12:31:31.993Z,0.77
2023-03-18T12:34:02.831Z,2.75
2023-03-18T12:36:55.125Z,0.73
2023-03-18T12:39:43.625Z,0.47
2023-03-18T12:42:27.420Z,1.00
2023-03-18T12:44:59.561Z,0.55
2023-03-18T12:47:37.229Z,0.70
2023-03-18T12:50:26.019Z,0.65
2023-03-18T12:53:00.253Z,0.75
2023-03-18T12:55:31.528Z,0.60
2023-03-18T12:58:11.538Z,0.80
2023-03-18T13:00:59.855Z,1.00
2023-03-18T13:03:40.078Z,0.57
2023-03-18T13:06:54.119Z,0.90
2023-03-18T13:09:40.240Z,0.90
2023-03-18T13:12:16.278Z,0.73
2023-03-18T13:15:12.603Z,1.48
2023-03-18T13:17:42.098Z,1.25
2023-03-18T13:20:18.101Z,0.85
2023-03-18T13:22:46.873Z,0.90
2023-03-18T13:25:41.131Z,1.48
2023-03-18T13:28:27.071Z,1.30
2023-03-18T13:31:19.524Z,1.67
2023-03-18T13:34:19.887Z,0.93
2023-03-18T13:37:08.560Z,0.95
2023-03-18T13:39:54.068Z,1.20
2023-03-18T13:42:25.994Z,1.10
2023-03-18T13:45:22.288Z,0.73
2023-03-18T13:47:58.063Z,0.80
2023-03-18T13:50:39.807Z,0.93
2023-03-18T13:53:41.563Z,0.70
2023-03-18T13:56:28.384Z,0.80
2023-03-18T13:58:55.582Z,1.88
2023-03-18T14:01:33.110Z,0.93
2023-03-18T14:04:19.535Z,1.10
2023-03-18T14:06:46.737Z,1.00
2023-03-18T14:09:49.144Z,1.00
2023-03-18T14:12:20.836Z,1.07
2023-03-18T14:14:47.840Z,0.87
2023-03-18T14:17:18.662Z,1.40
2023-03-18T14:19:45.937Z,1.30
2023-03-18T14:22:29.243Z,0.68
2023-03-18T14:25:14.292Z,1.10
2023-03-18T14:28:00.102Z,1.10
2023-03-18T14:30:29.889Z,1.27
2023-03-18T14:32:59.462Z,0.93
2023-03-18T14:35:48.634Z,2.20
2023-03-18T14:38:20.157Z,1.70
2023-03-18T14:40:51.580Z,1.42
2023-03-18T14:43:39.015Z,1.67
2023-03-18T14:46:17.466Z,1.40
2023-03-18T14:48:45.972Z,2.13
2023-03-18T14:51:19.668Z,1.15
2023-03-18T14:53:58.858Z,1.30
2023-03-18T14:56:31.060Z,0.90
2023-03-18T14:58:58.051Z,1.40
2023-03-18T15:01:39.910Z,0.90
2023-03-18T15:04:15.619Z,0.90
2023-03-18T15:06:42.879Z,1.50
2023-03-18T15:09:18.250Z,1.13
2023-03-18T15:11:47.620Z,0.73
2023-03-18T15:14:32.042Z,1.10
2023-03-18T15:17:01.774Z,1.08
2023-03-18T15:19:29.911Z,2.17
2023-03-18T15:22:03.401Z,1.15
2023-03-18T15:24:30.706Z,1.30
2023-03-18T15:27:06.889Z,1.35
2023-03-18T15:29:37.200Z,1.23
2023-03-18T15:32:25.873Z,1.20
2023-03-18T15:34:56.158Z,1.48
2023-03-18T15:37:25.840Z,1.20
2023-03-18T15:39:56.132Z,1.60
2023-03-18T15:42:23.330Z,1.45
2023-03-18T15:44:59.602Z,1.55
2023-03-18T15:47:32.074Z,1.20
2023-03-18T15:50:22.401Z,11.45
2023-03-18T15:52:49.462Z,2.17
2023-03-18T15:55:29.224Z,1.45
2023-03-18T15:57:58.034Z,1.98
2023-03-18T16:00:25.273Z,1.75
2023-03-18T16:02:52.988Z,1.88
2023-03-18T16:05:24.773Z,1.92
2023-03-18T16:07:53.786Z,1.65
2023-03-18T16:10:23.708Z,1.30
2023-03-18T16:12:54.838Z,1.40
2023-03-18T16:15:23.958Z,1.70
2023-03-18T16:17:53.431Z,1.10
2023-03-18T16:20:24.100Z,1.27
2023-03-18T16:22:51.869Z,2.33
2023-03-18T16:25:19.419Z,1.48
2023-03-18T16:27:52.242Z,1.48
2023-03-18T16:30:25.887Z,1.50
2023-03-18T16:32:53.973Z,2.03
2023-03-18T16:35:24.455Z,1.52
2023-03-18T16:37:53.068Z,1.73
2023-03-18T16:40:22.579Z,1.83
2023-03-18T16:42:50.692Z,1.80
2023-03-18T16:45:20.285Z,1.60
2023-03-18T16:47:49.942Z,3.17
2023-03-18T16:50:19.086Z,2.20
2023-03-18T16:52:47.393Z,3.17
2023-03-18T16:55:17.599Z,1.80
2023-03-18T16:57:58.012Z,1.70
2023-03-18T17:00:32.173Z,1.73
2023-03-18T17:03:00.790Z,1.30
2023-03-18T17:05:28.838Z,1.60
2023-03-18T17:07:57.452Z,1.50
2023-03-18T17:10:27.005Z,0.85
2023-03-18T17:13:05.794Z,1.98
2023-03-18T17:15:37.562Z,1.83
2023-03-18T17:18:07.586Z,1.90
2023-03-18T17:20:34.604Z,1.30
2023-03-18T17:23:01.799Z,1.58
2023-03-18T17:25:30.326Z,4.40
2023-03-18T17:27:59.489Z,4.00
2023-03-18T17:30:38.479Z,1.52
2023-03-18T17:33:29.043Z,1.80
2023-03-18T17:35:56.747Z,1.38
2023-03-18T17:38:24.333Z,0.90
2023-03-18T17:40:51.788Z,1.30
2023-03-18T17:43:24.983Z,1.63
2023-03-18T17:45:52.111Z,2.25
2023-03-18T17:48:30.065Z,1.50
2023-03-18T17:51:13.754Z,1.50
2023-03-18T17:53:44.888Z,1.60
2023-03-18T17:56:16.524Z,1.98
2023-03-18T17:58:48.703Z,2.20
2023-03-18T18:01:22.349Z,2.20
2023-03-18T18:03:50.424Z,3.67
2023-03-18T18:06:20.257Z,2.75
2023-03-18T18:08:48.738Z,3.45
2023-03-18T18:11:20.508Z,4.40
2023-03-18T18:13:48.321Z,6.33
2023-03-18T18:16:15.826Z,6.50
2023-03-18T18:18:42.985Z,5.75
2023-03-18T18:21:16.781Z,7.20
2023-03-18T18:23:45.062Z,6.25
2023-03-18T18:26:17.430Z,5.00
2023-03-18T18:28:47.579Z,3.88
2023-03-18T18:31:17.626Z,4.45
2023-03-18T18:33:46.621Z,4.57
2023-03-18T18:36:14.325Z,3.60
2023-03-18T18:38:41.551Z,5.63
2023-03-18T18:41:09.307Z,4.97
2023-03-18T18:43:36.714Z,6.40
2023-03-18T18:46:04.219Z,4.60
2023-03-18T18:48:33.426Z,3.92
2023-03-18T18:51:03.420Z,3.00
2023-03-18T18:53:36.438Z,3.65
2023-03-18T18:56:12.569Z,3.72
2023-03-18T18:58:39.732Z,4.45
2023-03-18T19:01:06.829Z,3.75
2023-03-18T19:03:34.032Z,4.18
2023-03-18T19:06:01.988Z,5.28
2023-03-18T19:08:36.561Z,4.43
2023-03-18T19:11:07.640Z,4.70
2023-03-18T19:13:37.617Z,5.10
2023-03-18T19:16:10.775Z,4.88
2023-03-18T19:18:39.252Z,4.57
2023-03-18T19:21:06.934Z,4.55
2023-03-18T19:23:35.794Z,6.30
2023-03-18T19:26:04.239Z,5.65
2023-03-18T19:28:58.537Z,5.05
2023-03-18T19:31:30.408Z,4.68
2023-03-18T19:33:59.635Z,4.60
2023-03-18T19:36:30.220Z,5.65
2023-03-18T19:39:00.116Z,5.97
2023-03-18T19:41:27.945Z,4.90
2023-03-18T19:44:01.756Z,4.80
2023-03-18T19:46:38.702Z,4.00
2023-03-18T19:49:33.521Z,3.88
2023-03-18T19:52:01.974Z,4.32
2023-03-18T19:54:33.492Z,3.78
2023-03-18T19:57:12.214Z,4.03
2023-03-18T19:59:40.014Z,3.83
2023-03-18T20:02:21.762Z,4.60
2023-03-18T20:04:53.409Z,4.47
2023-03-18T20:07:22.988Z,4.25
2023-03-18T20:09:50.714Z,3.80
2023-03-18T20:12:28.835Z,4.05
2023-03-18T20:14:56.074Z,4.20
2023-03-18T20:17:44.873Z,4.50
2023-03-18T20:20:15.401Z,4.68
2023-03-18T20:23:01.762Z,4.97
2023-03-18T20:25:40.041Z,4.53
2023-03-18T20:28:13.763Z,5.15
2023-03-18T20:31:01.113Z,3.97
2023-03-18T20:33:28.206Z,6.38
2023-03-18T20:35:56.191Z,5.28
2023-03-18T20:38:32.639Z,4.55
2023-03-18T20:41:00.380Z,4.65
2023-03-18T20:43:28.398Z,6.30
2023-03-18T20:45:57.356Z,5.07
2023-03-18T20:48:24.907Z,4.82
2023-03-18T20:50:52.859Z,4.93
2023-03-18T20:53:23.693Z,4.40
2023-03-18T20:55:51.537Z,4.72
2023-03-18T20:58:27.804Z,5.40
2023-03-18T21:00:55.320Z,4.70
2023-03-18T21:03:24.080Z,4.25
2023-03-18T21:05:52.696Z,4.57
2023-03-18T21:08:19.759Z,5.07
2023-03-18T21:10:46.896Z,4.22
2023-03-18T21:13:28.010Z,4.45
2023-03-18T21:15:56.961Z,3.83
2023-03-18T21:18:24.638Z,4.30
2023-03-18T21:20:52.707Z,5.10
2023-03-18T21:23:28.673Z,4.38
2023-03-18T21:25:56.527Z,4.00
2023-03-18T21:28:25.582Z,4.22
2023-03-18T21:30:57.882Z,4.72
2023-03-18T21:33:33.360Z,5.43
2023-03-18T21:36:01.338Z,4.45
2023-03-18T21:38:31.473Z,4.28
2023-03-18T21:41:00.649Z,3.75
2023-03-18T21:43:35.864Z,5.43
2023-03-18T21:46:05.310Z,6.88
2023-03-18T21:48:32.818Z,5.95
2023-03-18T21:50:59.936Z,5.07
2023-03-18T21:53:27.923Z,5.35
2023-03-18T21:55:55.324Z,4.45
2023-03-18T21:58:25.419Z,5.90
2023-03-18T22:00:58.697Z,5.55
2023-03-18T22:03:28.586Z,4.45
2023-03-18T22:05:57.427Z,4.07
2023-03-18T22:08:24.513Z,6.15
2023-03-18T22:10:52.874Z,3.63
2023-03-18T22:13:25.632Z,4.25
2023-03-18T22:15:54.593Z,4.88
2023-03-18T22:18:23.607Z,5.07
2023-03-18T22:20:51.466Z,4.75
2023-03-18T22:23:24.177Z,5.10
2023-03-18T22:25:53.537Z,5.68
2023-03-18T22:28:21.376Z,5.68
2023-03-18T22:30:55.713Z,5.40
2023-03-18T22:33:30.436Z,7.32
2023-03-18T22:35:57.696Z,4.82
2023-03-18T22:38:25.741Z,4.82
2023-03-18T22:40:57.020Z,4.00
2023-03-18T22:43:30.264Z,4.60
2023-03-18T22:45:59.004Z,4.05
2023-03-18T22:48:26.317Z,4.93
2023-03-18T22:50:54.076Z,4.65
2023-03-18T22:53:25.491Z,5.60
2023-03-18T22:55:56.491Z,5.10
2023-03-18T22:58:26.755Z,4.68
2023-03-18T23:00:55.277Z,4.60
2023-03-18T23:03:25.950Z,3.88
2023-03-18T23:05:55.109Z,4.38
2023-03-18T23:08:23.074Z,5.05
2023-03-18T23:10:52.468Z,4.97
2023-03-18T23:13:25.473Z,5.60
2023-03-18T23:15:53.183Z,6.22
2023-03-18T23:18:20.607Z,6.47
2023-03-18T23:20:49.507Z,5.50
2023-03-18T23:23:17.373Z,5.90
2023-03-18T23:25:46.060Z,5.45
2023-03-18T23:28:13.627Z,5.65
2023-03-18T23:30:42.672Z,6.35
2023-03-18T23:33:10.028Z,6.50
2023-03-18T23:35:38.048Z,5.30
2023-03-18T23:38:06.446Z,7.15
2023-03-18T23:40:33.962Z,5.95
2023-03-18T23:43:01.395Z,5.90
2023-03-18T23:45:28.505Z,6.55
2023-03-18T23:47:56.251Z,5.90
2023-03-18T23:50:24.025Z,5.63
2023-03-18T23:52:51.188Z,5.90
2023-03-18T23:55:33.676Z,5.55
2023-03-18T23:58:05.768Z,5.15
